Time;durP1;ratioP1;P1;durP2;ratioP2;P2;SDS_P1;SDS_P2;PMS_P1;PMS_P2;Temp;Humidity;BMP_temperature;BMP_pressure;BME280_temperature;BME280_humidity;BME280_pressure;Samples;Min_cycle;Max_cycle;Signal;HPM_P1;HPM_P2
2024/04/18 00:00:54;;;;;;;1.42;0.63;;;13.60;96.70;;;;;;5408091;26;20010;-74
2024/04/18 00:03:23;;;;;;;2.17;0.55;;;13.60;96.70;;;;;;5408505;26;20084;-73
2024/04/18 00:05:52;;;;;;;2.42;0.90;;;13.50;96.70;;;;;;5406478;26;20137;-74
2024/04/18 00:08:23;;;;;;;2.00;0.80;;;13.50;96.70;;;;;;5410240;26;20003;-74
2024/04/18 00:10:54;;;;;;;2.85;0.60;;;13.50;96.70;;;;;;5375643;26;20003;-73
2024/04/18 00:13:38;;;;;;;0.73;0.50;;;13.50;96.70;;;;;;5409607;26;20051;-74
2024/04/18 00:16:26;;;;;;;0.68;0.40;;;13.40;96.70;;;;;;5404652;26;20008;-74
2024/04/18 00:19:14;;;;;;;3.25;0.95;;;13.40;96.70;;;;;;5407692;26;20003;-73
2024/04/18 00:21:59;;;;;;;1.75;0.40;;;13.40;96.70;;;;;;5408100;26;20008;-73
2024/04/18 00:24:35;;;;;;;0.80;0.40;;;13.40;96.70;;;;;;5408169;26;20003;-74
2024/04/18 00:27:22;;;;;;;0.65;0.30;;;13.40;96.70;;;;;;5394830;26;20609;-73
2024/04/18 00:29:51;;;;;;;1.15;0.40;;;13.40;96.70;;;;;;5405447;26;20077;-73
2024/04/18 00:32:20;;;;;;;0.70;0.30;;;13.30;96.70;;;;;;5406102;26;20342;-73
2024/04/18 00:35:07;;;;;;;0.45;0.30;;;13.40;96.70;;;;;;5407939;26;20529;-73
2024/04/18 00:37:36;;;;;;;0.50;0.30;;;13.30;96.70;;;;;;5376756;26;20023;-73
2024/04/18 00:40:08;;;;;;;0.65;0.38;;;13.40;96.70;;;;;;5410018;26;20000;-74
2024/04/18 00:42:38;;;;;;;0.70;0.50;;;13.30;96.70;;;;;;5410403;26;20112;-73
2024/04/18 00:45:07;;;;;;;1.23;0.50;;;13.30;96.70;;;;;;5407817;26;20073;-74
2024/04/18 00:47:47;;;;;;;0.98;0.50;;;13.30;96.70;;;;;;5408545;26;20007;-73
2024/04/18 00:51:03;;;;;;;0.93;0.60;;;13.40;96.70;;;;;;5377288;26;20027;-73
2024/04/18 00:53:18;;;;;;;2.08;0.50;;;13.50;96.70;;;;;;5396175;26;20023;-73
2024/04/18 00:55:53;;;;;;;2.25;0.50;;;13.40;96.70;;;;;;5406358;26;20008;-74
2024/04/18 00:58:41;;;;;;;2.00;0.73;;;13.40;96.70;;;;;;5408331;26;20116;-74
2024/04/18 01:01:20;;;;;;;2.10;0.68;;;13.40;96.70;;;;;;5393101;26;20939;-74
2024/04/18 01:03:56;;;;;;;2.13;0.60;;;13.30;96.70;;;;;;5408286;26;20559;-73
2024/04/18 01:06:41;;;;;;;0.90;0.50;;;13.30;96.70;;;;;;5408453;26;20809;-73
2024/04/18 01:09:16;;;;;;;1.42;0.65;;;13.40;96.70;;;;;;5378156;26;20494;-74
2024/04/18 01:12:06;;;;;;;0.80;0.50;;;13.40;96.70;;;;;;5408342;26;20014;-73
2024/04/18 01:14:34;;;;;;;0.95;0.60;;;13.30;96.70;;;;;;5403403;26;20011;-73
2024/04/18 01:17:03;;;;;;;1.90;0.85;;;13.30;96.70;;;;;;5375113;26;20015;-73
2024/04/18 01:19:33;;;;;;;1.25;0.70;;;13.40;96.70;;;;;;5408752;26;20011;-74
2024/04/18 01:22:02;;;;;;;2.08;0.93;;;13.40;96.70;;;;;;5377518;26;20610;-73
2024/04/18 01:24:33;;;;;;;1.92;1.10;;;13.30;96.70;;;;;;5407622;26;20014;-73
2024/04/18 01:27:05;;;;;;;1.63;0.70;;;13.40;96.70;;;;;;5377525;26;20039;-74
2024/04/18 01:29:43;;;;;;;1.63;0.85;;;13.30;96.70;;;;;;5392998;26;20019;-72
2024/04/18 01:32:33;;;;;;;2.88;0.80;;;13.30;96.70;;;;;;5409684;26;20018;-73
2024/04/18 01:35:02;;;;;;;2.58;0.55;;;13.30;96.70;;;;;;5400813;26;20022;-73
2024/04/18 01:37:57;;;;;;;0.73;0.40;;;13.30;96.70;;;;;;5402076;26;20440;-73
2024/04/18 01:40:45;;;;;;;2.35;0.65;;;13.30;96.70;;;;;;5405303;26;20015;-73
2024/04/18 01:43:35;;;;;;;5.30;0.52;;;13.30;96.70;;;;;;5399321;26;20782;-73
2024/04/18 01:46:26;;;;;;;0.70;0.40;;;13.20;96.70;;;;;;5404493;26;20575;-72
2024/04/18 01:48:58;;;;;;;1.15;0.43;;;13.20;96.70;;;;;;5407303;26;20020;-73
2024/04/18 01:51:46;;;;;;;1.50;0.40;;;13.30;96.70;;;;;;5382579;26;20467;-73
2024/04/18 01:54:36;;;;;;;0.90;0.50;;;13.30;96.70;;;;;;5400645;26;20208;-73
2024/04/18 01:57:21;;;;;;;;;;;;;;;;;;;;;
2024/04/18 02:00:17;;;;;;;1.42;0.55;;;12.90;96.70;;;;;;5407434;26;20106;-73
2024/04/18 02:02:49;;;;;;;1.08;0.52;;;13.10;96.70;;;;;;5397117;26;20006;-73
2024/04/18 02:05:36;;;;;;;0.93;0.50;;;13.20;96.70;;;;;;5407052;26;20017;-73
2024/04/18 02:08:23;;;;;;;1.17;0.70;;;13.20;96.70;;;;;;5374549;26;20299;-75
2024/04/18 02:10:52;;;;;;;1.58;0.50;;;13.10;96.70;;;;;;5397734;26;19996;-74
2024/04/18 02:13:38;;;;;;;1.25;0.75;;;13.00;96.70;;;;;;5350613;26;20508;-74
2024/04/18 02:16:09;;;;;;;2.65;0.68;;;12.80;96.70;;;;;;5406522;26;20018;-74
2024/04/18 02:19:06;;;;;;;1.58;0.65;;;13.00;96.70;;;;;;5407524;26;20007;-75
2024/04/18 02:21:55;;;;;;;1.40;0.60;;;13.00;96.70;;;;;;5366373;26;20763;-74
2024/04/18 02:24:54;;;;;;;1.10;0.55;;;13.00;96.70;;;;;;5407083;26;20014;-75
2024/04/18 02:27:23;;;;;;;2.28;0.90;;;13.10;96.70;;;;;;5406911;26;19999;-76
2024/04/18 02:29:52;;;;;;;0.85;0.40;;;13.00;96.70;;;;;;5406094;26;20015;-75
2024/04/18 02:32:41;;;;;;;1.83;0.52;;;13.00;96.70;;;;;;5372501;26;20015;-75
2024/04/18 02:35:16;;;;;;;2.10;1.00;;;13.00;96.70;;;;;;5400756;26;20003;-75
2024/04/18 02:38:00;;;;;;;1.55;0.77;;;13.00;96.70;;;;;;5405688;26;20453;-74
2024/04/18 02:40:28;;;;;;;2.30;0.90;;;13.00;96.70;;;;;;5406425;26;20013;-75
2024/04/18 02:43:00;;;;;;;2.03;0.60;;;12.80;96.70;;;;;;5407708;26;20008;-75
2024/04/18 02:45:32;;;;;;;0.98;0.60;;;12.90;96.70;;;;;;5405497;26;20018;-75
2024/04/18 02:48:22;;;;;;;2.08;0.80;;;12.90;96.70;;;;;;5405291;26;20021;-75
2024/04/18 02:50:51;;;;;;;1.80;0.90;;;12.70;96.70;;;;;;5407212;26;19999;-75
2024/04/18 02:53:21;;;;;;;2.45;1.08;;;12.70;96.70;;;;;;5374693;26;20003;-75
2024/04/18 02:56:08;;;;;;;2.22;1.10;;;12.60;96.70;;;;;;5378790;26;20085;-75
2024/04/18 02:58:38;;;;;;;2.95;1.25;;;12.60;96.70;;;;;;5406944;26;20000;-75
2024/04/18 03:01:19;;;;;;;2.63;0.93;;;12.60;96.70;;;;;;5405645;26;20019;-75
2024/04/18 03:03:52;;;;;;;2.25;1.10;;;12.60;96.70;;;;;;5406449;26;20065;-75
2024/04/18 03:06:32;;;;;;;1.50;0.68;;;12.60;96.70;;;;;;5406409;26;20015;-76
2024/04/18 03:09:01;;;;;;;2.70;0.80;;;12.60;96.70;;;;;;5406025;26;20368;-75
2024/04/18 03:11:50;;;;;;;0.90;0.60;;;12.50;96.70;;;;;;5404272;26;20035;-76
2024/04/18 03:14:18;;;;;;;3.05;0.65;;;12.60;96.70;;;;;;5382302;26;20000;-74
2024/04/18 03:17:05;;;;;;;2.17;0.70;;;12.60;96.70;;;;;;5405947;26;20011;-75
2024/04/18 03:19:55;;;;;;;2.35;0.90;;;12.60;96.70;;;;;;5396234;26;20018;-75
2024/04/18 03:22:27;;;;;;;1.23;0.50;;;12.60;96.70;;;;;;5408974;26;20477;-75
2024/04/18 03:24:58;;;;;;;2.13;0.75;;;12.50;96.70;;;;;;5409767;26;20081;-76
2024/04/18 03:27:28;;;;;;;1.67;0.50;;;12.50;96.70;;;;;;5372923;26;20008;-75
2024/04/18 03:29:56;;;;;;;3.08;0.80;;;12.50;96.70;;;;;;5378595;26;20003;-75
2024/04/18 03:32:33;;;;;;;1.50;0.70;;;12.50;96.70;;;;;;5408923;26;20004;-75
2024/04/18 03:35:05;;;;;;;2.25;0.70;;;12.50;96.70;;;;;;5408978;26;20007;-75
2024/04/18 03:37:40;;;;;;;1.90;0.73;;;12.40;96.70;;;;;;5408374;26;20811;-74
2024/04/18 03:40:29;;;;;;;1.10;0.50;;;12.40;96.70;;;;;;5408960;26;20015;-73
2024/04/18 03:43:00;;;;;;;1.35;0.70;;;12.40;96.70;;;;;;5408410;26;20007;-73
2024/04/18 03:45:29;;;;;;;1.10;0.70;;;12.30;96.70;;;;;;5375433;26;20031;-73
2024/04/18 03:48:19;;;;;;;;;;;12.40;96.70;;;;;;5409101;26;20019;-74
2024/04/18 03:50:51;;;;;;;2.03;0.80;;;12.30;96.70;;;;;;5409530;26;19935;-74
2024/04/18 03:53:20;;;;;;;1.75;0.85;;;12.30;96.70;;;;;;5409952;26;20018;-73
2024/04/18 03:56:09;;;;;;;0.80;0.50;;;12.40;96.70;;;;;;5397603;26;21044;-74
2024/04/18 03:58:37;;;;;;;2.10;0.63;;;12.40;96.70;;;;;;5408499;26;20006;-74
2024/04/18 04:01:06;;;;;;;2.58;1.00;;;12.40;96.70;;;;;;5376535;26;20367;-74
2024/04/18 04:03:35;;;;;;;1.17;0.60;;;12.40;96.70;;;;;;5407036;26;19999;-74
2024/04/18 04:06:07;;;;;;;3.10;0.90;;;12.40;96.70;;;;;;5407826;26;20462;-75
2024/04/18 04:08:36;;;;;;;2.22;0.60;;;12.40;96.70;;;;;;5408399;26;20033;-73
2024/04/18 04:11:23;;;;;;;1.02;0.65;;;12.40;96.70;;;;;;5378799;26;20003;-73
2024/04/18 04:13:55;;;;;;;1.65;0.65;;;12.30;96.70;;;;;;5408314;26;20003;-74
2024/04/18 04:16:47;;;;;;;1.40;0.80;;;12.40;96.70;;;;;;5408344;26;20019;-74
2024/04/18 04:19:18;;;;;;;1.50;0.63;;;12.30;96.70;;;;;;5408536;26;20109;-74
2024/04/18 04:21:52;;;;;;;2.67;0.70;;;12.40;96.70;;;;;;5408424;26;20032;-73
2024/04/18 04:24:20;;;;;;;2.30;0.85;;;12.40;96.70;;;;;;5405378;26;20011;-74
2024/04/18 04:26:51;;;;;;;1.88;0.80;;;12.40;96.70;;;;;;5408954;26;20072;-74
2024/04/18 04:29:20;;;;;;;1.33;0.63;;;12.40;96.70;;;;;;5403771;26;20003;-73
2024/04/18 04:31:49;;;;;;;2.75;0.70;;;12.30;96.70;;;;;;5401704;26;20010;-74
2024/04/18 04:34:18;;;;;;;1.00;0.60;;;12.30;96.70;;;;;;5411955;26;20009;-74
2024/04/18 04:36:47;;;;;;;2.28;1.00;;;11.90;96.70;;;;;;5408084;26;20007;-73
2024/04/18 04:39:21;;;;;;;3.47;0.88;;;11.40;96.70;;;;;;5407894;26;20658;-74
2024/04/18 04:42:10;;;;;;;1.63;0.70;;;11.30;96.70;;;;;;5407194;26;20003;-75
2024/04/18 04:44:40;;;;;;;1.65;0.63;;;11.30;96.70;;;;;;5397339;26;20050;-74
2024/04/18 04:47:28;;;;;;;3.30;0.90;;;11.50;96.70;;;;;;5407936;26;20015;-73
2024/04/18 04:50:00;;;;;;;2.83;0.90;;;11.50;96.70;;;;;;5408410;26;20342;-73
2024/04/18 04:52:38;;;;;;;2.33;1.02;;;11.50;96.70;;;;;;5412974;26;20490;-74
2024/04/18 04:55:20;;;;;;;1.13;0.77;;;11.60;96.70;;;;;;5408485;26;20430;-74
2024/04/18 04:57:49;;;;;;;1.38;0.80;;;11.70;96.70;;;;;;5397276;26;20078;-73
2024/04/18 05:00:21;;;;;;;1.58;1.02;;;11.80;96.70;;;;;;5381733;26;20577;-73
2024/04/18 05:02:56;;;;;;;2.45;0.80;;;11.80;96.70;;;;;;5408153;26;20003;-74
2024/04/18 05:05:45;;;;;;;2.97;1.10;;;12.00;96.70;;;;;;5409216;26;19999;-74
2024/04/18 05:08:33;;;;;;;2.70;1.13;;;11.90;96.70;;;;;;5395316;26;20004;-73
2024/04/18 05:11:05;;;;;;;2.35;1.10;;;12.00;96.70;;;;;;5375718;26;20050;-74
2024/04/18 05:13:42;;;;;;;3.10;1.10;;;12.00;96.70;;;;;;5375589;26;20551;-73
2024/04/18 05:16:21;;;;;;;1.67;0.88;;;12.00;96.70;;;;;;5407340;26;20018;-74
2024/04/18 05:19:11;;;;;;;1.75;0.80;;;12.10;96.70;;;;;;5407912;26;20007;-74
2024/04/18 05:21:41;;;;;;;1.88;0.93;;;12.10;96.70;;;;;;5406234;26;20397;-74
2024/04/18 05:25:03;;;;;;;1.75;0.90;;;12.20;96.70;;;;;;5406435;26;20030;-74
2024/04/18 05:28:20;;;;;;;1.85;0.98;;;12.20;96.70;;;;;;5342427;26;20040;-74
2024/04/18 05:31:04;;;;;;;2.88;0.90;;;12.40;96.70;;;;;;5403921;26;20000;-72
2024/04/18 05:33:36;;;;;;;3.00;1.10;;;12.40;96.70;;;;;;5395531;26;20067;-74
2024/04/18 05:36:06;;;;;;;2.97;1.10;;;12.20;96.70;;;;;;5407030;26;20008;-74
2024/04/18 05:38:35;;;;;;;1.85;1.00;;;12.30;96.70;;;;;;5407665;26;20003;-74
2024/04/18 05:41:04;;;;;;;3.28;1.10;;;12.40;96.70;;;;;;5407776;26;20027;-74
2024/04/18 05:43:57;;;;;;;1.85;1.13;;;12.40;96.70;;;;;;5404122;26;20004;-75
2024/04/18 05:46:32;;;;;;;5.00;1.42;;;12.40;96.70;;;;;;5376078;26;20701;-75
2024/04/18 05:49:08;;;;;;;6.13;1.10;;;12.60;96.70;;;;;;5407428;26;20015;-75
2024/04/18 05:52:01;;;;;;;4.35;0.60;;;12.70;96.70;;;;;;5408410;26;20567;-74
2024/04/18 05:54:31;;;;;;;1.42;0.70;;;12.80;96.70;;;;;;5345888;26;20028;-73
2024/04/18 05:57:06;;;;;;;3.15;0.82;;;12.80;96.70;;;;;;5405084;26;20062;-74
2024/04/18 05:59:52;;;;;;;2.85;0.60;;;12.90;96.70;;;;;;5404371;26;20003;-74
2024/04/18 06:02:21;;;;;;;1.65;0.60;;;12.90;96.70;;;;;;5404397;26;20000;-73
2024/04/18 06:04:50;;;;;;;1.35;0.50;;;12.90;96.70;;;;;;5374796;26;20042;-73
2024/04/18 06:07:37;;;;;;;4.25;0.60;;;12.90;96.70;;;;;;5367735;26;20427;-74
2024/04/18 06:10:09;;;;;;;2.47;0.70;;;12.90;96.70;;;;;;5404814;26;20003;-74
2024/04/18 06:13:24;;;;;;;7.32;1.17;;;13.00;96.70;;;;;;5404301;26;20003;-75
2024/04/18 06:15:56;;;;;;;5.80;1.30;;;13.00;96.70;;;;;;5406999;26;20044;-74
2024/04/18 06:18:45;;;;;;;6.60;1.10;;;12.90;96.70;;;;;;5389781;26;20078;-74
2024/04/18 06:21:15;;;;;;;3.10;1.27;;;12.90;96.70;;;;;;5407840;26;19999;-74
2024/04/18 06:23:48;;;;;;;6.13;1.25;;;13.00;96.70;;;;;;5376876;26;20044;-75
2024/04/18 06:26:18;;;;;;;8.80;1.48;;;13.00;96.70;;;;;;5377253;26;20007;-75
2024/04/18 06:28:47;;;;;;;5.03;2.20;;;13.00;96.70;;;;;;5407262;26;20010;-74
2024/04/18 06:31:38;;;;;;;5.03;2.20;;;12.90;96.70;;;;;;5406907;26;20017;-75
2024/04/18 06:34:07;;;;;;;5.22;2.20;;;12.90;96.70;;;;;;5407574;26;20044;-74
2024/04/18 06:36:35;;;;;;;3.28;1.80;;;12.90;96.70;;;;;;5405594;26;20449;-74
2024/04/18 06:39:07;;;;;;;10.10;2.00;;;13.00;96.70;;;;;;5391865;26;20003;-74
2024/04/18 06:42:11;;;;;;;5.35;1.80;;;13.00;96.70;;;;;;5407207;26;20337;-74
2024/04/18 06:44:40;;;;;;;6.18;1.90;;;13.00;96.70;;;;;;5375651;26;20014;-75
2024/04/18 06:47:13;;;;;;;2.72;1.50;;;13.10;96.70;;;;;;5375924;26;20022;-75
2024/04/18 06:50:05;;;;;;;2.15;1.50;;;13.10;96.70;;;;;;5397858;26;20876;-73
2024/04/18 06:52:34;;;;;;;4.85;1.40;;;13.20;96.70;;;;;;5405172;26;20010;-73
2024/04/18 06:55:04;;;;;;;3.25;1.30;;;13.20;96.70;;;;;;5407570;26;20096;-73
2024/04/18 06:57:44;;;;;;;3.65;1.75;;;13.20;96.70;;;;;;5370998;26;20011;-73
2024/04/18 07:00:14;;;;;;;2.63;1.58;;;13.10;96.70;;;;;;5406994;26;20073;-74
2024/04/18 07:02:47;;;;;;;2.50;1.50;;;13.20;96.70;;;;;;5406154;26;20597;-73
2024/04/18 07:05:34;;;;;;;3.70;1.95;;;13.30;96.70;;;;;;5397735;26;20080;-73
2024/04/18 07:08:26;;;;;;;3.13;1.60;;;13.30;96.70;;;;;;5404960;26;20078;-73
2024/04/18 07:12:41;;;;;;;2.60;1.00;;;13.40;96.70;;;;;;5402627;26;20376;-73
2024/04/18 07:15:14;;;;;;;1.55;1.05;;;13.40;96.70;;;;;;5405468;26;20008;-73
2024/04/18 07:17:46;;;;;;;2.67;1.15;;;13.50;96.70;;;;;;5406643;26;20412;-73
2024/04/18 07:20:15;;;;;;;2.30;0.98;;;13.50;96.70;;;;;;5407230;26;19996;-74
2024/04/18 07:23:04;;;;;;;1.90;1.17;;;13.50;96.70;;;;;;5352817;26;20324;-73
2024/04/18 07:25:37;;;;;;;3.00;1.00;;;13.70;96.70;;;;;;5407060;26;20003;-73
2024/04/18 07:28:53;;;;;;;1.95;1.05;;;13.70;96.70;;;;;;5377072;26;20011;-73
2024/04/18 07:31:22;;;;;;;3.60;1.05;;;13.80;96.70;;;;;;5360960;26;20690;-74
2024/04/18 07:34:28;;;;;;;2.60;1.15;;;13.90;96.70;;;;;;5406189;26;20015;-73
2024/04/18 07:36:59;;;;;;;2.00;1.17;;;14.00;96.70;;;;;;5395262;26;20899;-73
2024/04/18 07:39:31;;;;;;;2.05;1.05;;;13.90;96.70;;;;;;5406248;26;20468;-73
2024/04/18 07:42:01;;;;;;;2.30;1.13;;;13.90;96.70;;;;;;5406199;26;20373;-73
2024/04/18 07:44:30;;;;;;;1.15;0.68;;;14.20;96.70;;;;;;5374020;26;20453;-73
2024/04/18 07:47:00;;;;;;;1.50;1.00;;;14.30;96.70;;;;;;5404756;26;20010;-72
2024/04/18 07:49:32;;;;;;;4.55;1.10;;;14.40;96.70;;;;;;5405753;26;20840;-72
2024/04/18 07:52:01;;;;;;;1.25;0.77;;;14.40;96.70;;;;;;5399599;26;20009;-73
2024/04/18 07:54:39;;;;;;;1.40;0.73;;;14.60;96.70;;;;;;5403113;26;20011;-72
2024/04/18 07:57:08;;;;;;;1.38;0.70;;;14.80;96.70;;;;;;5404363;26;20003;-74
2024/04/18 07:59:42;;;;;;;1.42;0.77;;;14.80;96.70;;;;;;5375402;26;20403;-72
2024/04/18 08:02:12;;;;;;;1.85;0.73;;;14.90;96.70;;;;;;5403020;26;20473;-72
2024/04/18 08:04:45;;;;;;;4.85;1.02;;;14.90;96.70;;;;;;5406157;26;20011;-73
2024/04/18 08:07:29;;;;;;;3.92;1.13;;;15.10;96.70;;;;;;5406702;26;20476;-72
2024/04/18 08:10:38;;;;;;;;;;;;;;;;;;;;;
2024/04/18 08:13:27;;;;;;;3.83;0.80;;;15.30;96.70;;;;;;5399687;26;19999;-72
2024/04/18 08:16:03;;;;;;;2.13;0.63;;;15.40;96.70;;;;;;5379962;26;20003;-72
2024/04/18 08:18:33;;;;;;;2.05;0.70;;;15.50;96.70;;;;;;5406298;26;20003;-72
2024/04/18 08:21:07;;;;;;;1.23;0.70;;;15.50;96.70;;;;;;5409800;26;20003;-72
2024/04/18 08:23:36;;;;;;;2.00;0.77;;;15.60;96.70;;;;;;5409865;26;19996;-73
2024/04/18 08:26:05;;;;;;;2.22;0.60;;;15.70;96.70;;;;;;5408087;26;20000;-73
2024/04/18 08:28:34;;;;;;;1.42;0.50;;;15.90;96.70;;;;;;5372293;26;20014;-73
2024/04/18 08:31:26;;;;;;;1.95;0.60;;;16.00;96.70;;;;;;5409326;26;20033;-73
2024/04/18 08:33:55;;;;;;;5.00;1.10;;;16.00;96.70;;;;;;5406410;26;20773;-73
2024/04/18 08:36:45;;;;;;;1.75;0.75;;;16.10;96.70;;;;;;5406456;26;20541;-72
2024/04/18 08:39:15;;;;;;;1.83;0.40;;;16.10;96.70;;;;;;5408635;26;20007;-73
2024/04/18 08:41:44;;;;;;;2.92;0.68;;;16.20;96.70;;;;;;5408351;26;19995;-73
2024/04/18 08:44:15;;;;;;;2.05;0.50;;;16.30;96.70;;;;;;5408913;26;20065;-73
2024/04/18 08:46:46;;;;;;;1.88;0.68;;;16.30;96.70;;;;;;5409105;26;20030;-74
2024/04/18 08:49:18;;;;;;;2.38;0.60;;;16.30;96.70;;;;;;5405015;26;20493;-73
2024/04/18 08:51:51;;;;;;;1.60;0.50;;;16.40;96.70;;;;;;5405343;26;20373;-73
2024/04/18 08:54:20;;;;;;;2.45;0.60;;;16.60;96.70;;;;;;5408790;26;20003;-73
2024/04/18 08:56:53;;;;;;;1.55;0.50;;;16.70;96.70;;;;;;5408323;26;20000;-73
2024/04/18 08:59:24;;;;;;;1.30;0.30;;;16.80;96.70;;;;;;5406273;26;19999;-73
2024/04/18 09:05:31;;;;;;;2.45;0.60;;;16.90;96.70;;;;;;5342285;26;20035;-74
2024/04/18 09:08:09;;;;;;;0.98;0.50;;;17.00;96.70;;;;;;5366648;26;20611;-74
2024/04/18 09:10:41;;;;;;;1.20;0.57;;;17.00;96.70;;;;;;5406328;26;20023;-74
2024/04/18 09:17:16;;;;;;;0.88;0.40;;;17.20;96.70;;;;;;5401743;26;20035;-74
2024/04/18 09:19:48;;;;;;;1.10;0.50;;;17.20;96.70;;;;;;5407677;26;20510;-75
2024/04/18 09:22:18;;;;;;;1.85;0.80;;;17.20;96.70;;;;;;5408680;26;20025;-74
2024/04/18 09:24:50;;;;;;;3.80;0.98;;;17.20;96.70;;;;;;5376351;26;20390;-74
2024/04/18 09:27:19;;;;;;;3.15;0.90;;;17.30;96.70;;;;;;5403197;26;20015;-75
2024/04/18 09:29:48;;;;;;;2.58;0.90;;;17.40;96.70;;;;;;5409104;26;20011;-76
2024/04/18 09:32:17;;;;;;;1.85;0.90;;;17.50;96.70;;;;;;5376884;26;20039;-75
2024/04/18 09:34:50;;;;;;;2.17;0.90;;;17.50;96.70;;;;;;5408335;26;20000;-76
2024/04/18 09:37:21;;;;;;;2.95;1.60;;;17.60;96.70;;;;;;5407741;26;19999;-75
2024/04/18 09:39:57;;;;;;;3.00;1.05;;;17.50;96.70;;;;;;5408601;26;20399;-75
2024/04/18 09:42:36;;;;;;;2.85;1.17;;;17.40;96.70;;;;;;5373179;26;20003;-75
2024/04/18 09:45:10;;;;;;;2.90;1.35;;;17.50;96.70;;;;;;5384660;26;20023;-75
2024/04/18 09:47:41;;;;;;;2.55;1.20;;;17.60;96.70;;;;;;5408030;26;20000;-75
2024/04/18 09:50:10;;;;;;;2.88;0.82;;;17.70;96.70;;;;;;5409120;26;20003;-75
2024/04/18 09:52:41;;;;;;;4.35;1.00;;;17.90;96.70;;;;;;5376804;26;20036;-75
2024/04/18 09:55:15;;;;;;;2.72;1.02;;;18.00;96.70;;;;;;5361852;26;20003;-75
2024/04/18 09:57:44;;;;;;;2.38;1.08;;;18.10;96.70;;;;;;5402910;26;20461;-74
2024/04/18 10:00:15;;;;;;;2.05;1.10;;;18.30;96.70;;;;;;5373662;26;20000;-75
2024/04/18 10:02:46;;;;;;;2.75;1.08;;;18.30;96.70;;;;;;5407569;26;20457;-75
2024/04/18 10:05:14;;;;;;;1.90;0.93;;;18.40;96.70;;;;;;5407520;26;20003;-74
2024/04/18 10:07:44;;;;;;;1.92;0.82;;;18.50;96.70;;;;;;5408196;26;19999;-74
2024/04/18 10:10:17;;;;;;;2.78;0.93;;;18.40;96.70;;;;;;5407116;26;20014;-75
2024/04/18 10:12:47;;;;;;;1.25;0.80;;;18.40;96.70;;;;;;5407705;26;20023;-74
2024/04/18 10:15:20;;;;;;;3.70;1.08;;;18.60;96.70;;;;;;5407954;26;20015;-74
2024/04/18 10:17:49;;;;;;;1.85;0.70;;;18.70;96.70;;;;;;5372601;26;20081;-74
2024/04/18 10:20:19;;;;;;;2.45;0.82;;;18.70;96.70;;;;;;5407485;26;20014;-74
2024/04/18 10:22:56;;;;;;;1.77;0.77;;;18.60;96.70;;;;;;5407391;26;20000;-74
2024/04/18 10:25:28;;;;;;;1.92;0.93;;;18.50;96.70;;;;;;5407165;26;20883;-74
2024/04/18 10:27:57;;;;;;;2.28;0.75;;;18.40;96.70;;;;;;5406672;26;20003;-73
2024/04/18 10:30:28;;;;;;;4.88;0.98;;;18.50;96.70;;;;;;5407330;26;20007;-73
2024/04/18 10:32:56;;;;;;;1.83;0.73;;;18.70;96.70;;;;;;5406517;26;20105;-74
2024/04/18 10:35:26;;;;;;;2.35;0.73;;;18.90;96.70;;;;;;5404076;26;19998;-74
2024/04/18 10:37:57;;;;;;;2.05;0.70;;;18.90;96.70;;;;;;5407463;26;19999;-74
2024/04/18 10:40:32;;;;;;;1.48;0.80;;;18.80;96.70;;;;;;5405488;26;20620;-73
2024/04/18 10:43:13;;;;;;;1.50;0.50;;;18.80;96.70;;;;;;5376528;26;20076;-74
2024/04/18 10:45:49;;;;;;;1.63;0.52;;;18.90;96.70;;;;;;5407616;26;20187;-74
2024/04/18 10:48:20;;;;;;;2.78;0.65;;;19.10;96.70;;;;;;5407954;26;19996;-73
2024/04/18 10:50:50;;;;;;;0.90;0.50;;;19.00;96.70;;;;;;5403232;26;20015;-74
2024/04/18 10:53:19;;;;;;;2.28;0.50;;;19.10;96.70;;;;;;5406663;26;20011;-74
2024/04/18 10:55:51;;;;;;;1.42;0.50;;;19.20;96.70;;;;;;5406972;26;20009;-74
2024/04/18 10:58:20;;;;;;;1.05;0.60;;;19.30;96.70;;;;;;5407505;26;19999;-74
2024/04/18 11:00:57;;;;;;;0.98;0.50;;;19.50;96.70;;;;;;5392558;26;20004;-74
2024/04/18 11:03:27;;;;;;;1.98;0.55;;;19.60;96.70;;;;;;5407190;26;20471;-75
2024/04/18 11:05:56;;;;;;;1.52;0.40;;;20.00;96.70;;;;;;5405392;26;20007;-73
2024/04/18 11:08:34;;;;;;;1.92;0.50;;;20.00;96.70;;;;;;5369936;26;20009;-74
2024/04/18 11:11:08;;;;;;;3.20;0.65;;;20.40;96.70;;;;;;5373835;26;20007;-73
2024/04/18 11:13:37;;;;;;;4.97;0.60;;;20.50;96.70;;;;;;5406452;26;20000;-73
2024/04/18 11:16:08;;;;;;;1.50;0.43;;;20.50;96.70;;;;;;5405349;26;20015;-70
2024/04/18 11:18:37;;;;;;;2.63;0.30;;;19.90;96.70;;;;;;5373402;26;20007;-71
2024/04/18 11:21:07;;;;;;;1.05;0.50;;;19.20;96.70;;;;;;5400001;26;20070;-71
2024/04/18 11:23:37;;;;;;;3.55;0.30;;;18.70;96.70;;;;;;5396289;26;20018;-72
2024/04/18 11:26:22;;;;;;;0.70;0.30;;;18.40;96.70;;;;;;5401953;26;20012;-70
2024/04/18 11:28:52;;;;;;;0.57;0.20;;;18.20;96.70;;;;;;5406270;26;20003;-72
2024/04/18 11:31:21;;;;;;;2.60;0.30;;;17.80;96.70;;;;;;5365531;26;20029;-70
2024/04/18 11:33:50;;;;;;;2.35;0.40;;;17.70;96.70;;;;;;5406455;26;20050;-70
2024/04/18 11:36:20;;;;;;;1.33;0.32;;;17.50;96.70;;;;;;5405738;26;20439;-71
2024/04/18 11:38:52;;;;;;;0.20;0.10;;;17.10;96.70;;;;;;5400680;26;20018;-70
2024/04/18 11:41:30;;;;;;;0.82;0.17;;;16.90;96.70;;;;;;5403943;26;20003;-73
2024/04/18 11:44:01;;;;;;;1.80;0.17;;;16.50;96.70;;;;;;5409546;26;20080;-72
2024/04/18 11:46:31;;;;;;;2.45;0.30;;;16.10;96.70;;;;;;5372660;26;20005;-74
2024/04/18 11:49:00;;;;;;;0.88;0.30;;;15.80;96.70;;;;;;5408619;26;20057;-73
2024/04/18 11:51:31;;;;;;;0.30;0.10;;;15.80;96.70;;;;;;5384755;26;20022;-75
2024/04/18 11:54:01;;;;;;;0.25;0.10;;;15.60;96.70;;;;;;5406059;26;20003;-72
2024/04/18 11:56:39;;;;;;;0.95;0.22;;;15.40;96.70;;;;;;5377055;26;20089;-72
2024/04/18 11:59:31;;;;;;;1.15;0.00;;;15.40;96.70;;;;;;5405386;26;20026;-72
2024/04/18 12:02:00;;;;;;;0.57;0.10;;;15.40;96.70;;;;;;5408350;26;20019;-72
2024/04/18 12:04:29;;;;;;;0.70;0.13;;;15.50;96.70;;;;;;5409478;26;20000;-72
2024/04/18 12:07:18;;;;;;;0.68;0.20;;;15.50;96.70;;;;;;5408875;26;20008;-72
2024/04/18 12:10:10;;;;;;;0.35;0.10;;;15.50;96.70;;;;;;5321692;26;20023;-73
2024/04/18 12:13:03;;;;;;;1.42;0.28;;;15.50;96.70;;;;;;5408839;26;20003;-72
2024/04/18 12:15:36;;;;;;;2.35;0.38;;;15.40;96.70;;;;;;5407040;26;20000;-70
2024/04/18 12:18:06;;;;;;;0.65;0.10;;;15.40;96.70;;;;;;5394482;26;20014;-74
2024/04/18 12:20:49;;;;;;;1.42;0.20;;;15.40;96.70;;;;;;5412328;26;20356;-74
2024/04/18 12:23:36;;;;;;;0.52;0.10;;;15.30;96.70;;;;;;5380716;26;19995;-73
2024/04/18 12:26:06;;;;;;;1.75;0.20;;;15.20;96.70;;;;;;5378147;26;20012;-72
2024/04/18 12:28:47;;;;;;;1.63;0.17;;;15.20;96.70;;;;;;5407856;26;20007;-73
2024/04/18 12:31:17;;;;;;;0.40;0.10;;;15.20;96.70;;;;;;5407896;26;20853;-73
2024/04/18 12:34:00;;;;;;;0.80;0.20;;;15.20;96.70;;;;;;5364665;26;20056;-74
2024/04/18 12:36:29;;;;;;;;;;;15.20;96.70;;;;;;5409279;26;20778;-74
2024/04/18 12:39:15;;;;;;;0.60;0.20;;;15.20;96.70;;;;;;5400460;26;19932;-72
2024/04/18 12:41:45;;;;;;;1.42;0.40;;;15.00;96.70;;;;;;5406765;26;20014;-73
2024/04/18 12:44:19;;;;;;;0.52;0.13;;;15.00;96.70;;;;;;5408742;26;20008;-76
2024/04/18 12:46:48;;;;;;;1.27;0.30;;;15.00;96.70;;;;;;5407239;26;20003;-76
2024/04/18 12:49:16;;;;;;;1.42;0.28;;;14.90;96.70;;;;;;5374669;26;20062;-76
2024/04/18 12:51:46;;;;;;;1.15;0.15;;;14.70;96.70;;;;;;5404725;26;20017;-75
2024/04/18 12:54:15;;;;;;;1.05;0.20;;;14.60;96.70;;;;;;5406277;26;20032;-73
2024/04/18 12:56:59;;;;;;;1.50;0.30;;;14.60;96.70;;;;;;5373021;26;20003;-74
2024/04/18 13:14:25;;;;;;;1.33;0.20;;;14.30;96.70;;;;;;5380480;26;19999;-75
2024/04/18 13:17:14;;;;;;;0.93;0.30;;;14.20;96.70;;;;;;5395270;26;20077;-74
2024/04/18 13:20:02;;;;;;;0.30;0.13;;;14.10;96.70;;;;;;5392948;26;20065;-75
2024/04/18 13:22:37;;;;;;;1.20;0.35;;;14.20;96.70;;;;;;5375832;26;20005;-74
2024/04/18 13:25:08;;;;;;;0.95;0.28;;;14.10;96.70;;;;;;5399609;26;20004;-74
2024/04/18 13:28:15;;;;;;;0.95;0.20;;;14.10;96.70;;;;;;5393689;26;20021;-74
2024/04/18 13:30:47;;;;;;;0.98;0.20;;;14.10;96.70;;;;;;5363641;26;20019;-74
2024/04/18 13:34:02;;;;;;;0.40;0.10;;;14.10;96.70;;;;;;5388361;26;20326;-73
2024/04/18 13:36:34;;;;;;;0.60;0.20;;;14.10;96.70;;;;;;5405908;26;20076;-75
2024/04/18 13:43:52;;;;;;;0.90;0.20;;;14.10;96.70;;;;;;5376213;26;20058;-75
2024/04/18 13:46:38;;;;;;;1.42;0.20;;;14.00;96.70;;;;;;5340745;26;20004;-74
2024/04/18 13:49:13;;;;;;;0.80;0.20;;;14.00;96.70;;;;;;5381549;26;19995;-75
2024/04/18 13:52:34;;;;;;;;;;;;;;;;;;;;;
2024/04/18 14:03:32;;;;;;;3.78;1.05;;;13.90;96.70;;;;;;5300686;26;20550;-75
2024/04/18 14:06:08;;;;;;;0.60;0.30;;;13.90;96.70;;;;;;5304436;26;20013;-74
2024/04/18 14:08:38;;;;;;;0.75;0.20;;;13.70;96.70;;;;;;5402968;26;20736;-74
2024/04/18 14:11:32;;;;;;;1.80;0.43;;;13.60;96.70;;;;;;5404049;26;20019;-74
2024/04/18 14:14:55;;;;;;;1.35;0.43;;;13.90;96.70;;;;;;5248376;27;20014;-73
2024/04/18 14:21:24;;;;;;;1.83;0.70;;;13.90;96.70;;;;;;5379680;26;20022;-75